createdAt,value
2017-08-20T00:01:22.493Z,3.70
2017-08-20T00:03:51.062Z,3.87
2017-08-20T00:06:18.845Z,3.87
2017-08-20T00:08:46.577Z,3.47
2017-08-20T00:11:14.333Z,3.40
2017-08-20T00:13:42.066Z,3.47
2017-08-20T00:16:09.813Z,3.37
2017-08-20T00:18:37.635Z,3.33
2017-08-20T00:21:05.379Z,2.87
2017-08-20T00:23:33.697Z,2.80
2017-08-20T00:26:01.459Z,2.60
2017-08-20T00:28:29.232Z,2.47
2017-08-20T00:30:56.972Z,2.70
2017-08-20T00:33:24.777Z,2.40
2017-08-20T00:35:52.523Z,3.00
2017-08-20T00:38:20.255Z,2.57
2017-08-20T00:40:48.130Z,2.60
2017-08-20T00:43:15.884Z,2.97
2017-08-20T00:45:43.623Z,2.10
2017-08-20T00:48:11.602Z,2.93
2017-08-20T00:50:39.385Z,2.00
2017-08-20T00:53:07.131Z,2.47
2017-08-20T00:55:35.669Z,2.50
2017-08-20T00:58:03.500Z,2.47
2017-08-20T01:00:31.259Z,2.70
2017-08-20T01:02:59.015Z,2.17
2017-08-20T01:05:26.775Z,2.40
2017-08-20T01:07:54.526Z,2.73
2017-08-20T01:10:22.306Z,2.57
2017-08-20T01:12:50.103Z,2.40
2017-08-20T01:15:17.846Z,2.50
2017-08-20T01:17:45.670Z,2.37
2017-08-20T01:20:13.402Z,2.40
2017-08-20T01:22:41.152Z,2.70
2017-08-20T01:25:08.952Z,2.37
2017-08-20T01:27:36.746Z,2.70
2017-08-20T01:30:04.525Z,2.50
2017-08-20T01:32:32.272Z,2.60
2017-08-20T01:35:00.067Z,3.00
2017-08-20T01:37:27.882Z,2.13
2017-08-20T01:39:55.637Z,2.50
2017-08-20T01:42:24.148Z,2.70
2017-08-20T01:44:51.886Z,2.80
2017-08-20T01:47:19.691Z,3.10
2017-08-20T01:49:47.485Z,2.60
2017-08-20T01:52:15.304Z,2.87
2017-08-20T01:54:43.051Z,2.60
2017-08-20T01:57:10.804Z,3.07
2017-08-20T01:59:38.533Z,2.20
2017-08-20T02:02:06.350Z,3.00
2017-08-20T02:04:34.086Z,2.33
2017-08-20T02:07:01.810Z,2.70
2017-08-20T02:09:29.626Z,2.53
2017-08-20T02:11:57.426Z,2.90
2017-08-20T02:14:25.214Z,2.33
2017-08-20T02:16:52.977Z,2.93
2017-08-20T02:19:20.713Z,2.60
2017-08-20T02:21:48.485Z,2.77
2017-08-20T02:24:16.238Z,2.97
2017-08-20T02:26:44.025Z,2.60
2017-08-20T02:29:11.810Z,3.07
2017-08-20T02:31:39.603Z,3.03
2017-08-20T02:34:07.389Z,3.00
2017-08-20T02:36:35.128Z,2.57
2017-08-20T02:39:02.937Z,2.40
2017-08-20T02:41:30.670Z,2.60
2017-08-20T02:43:58.464Z,3.00
2017-08-20T02:46:26.257Z,3.10
2017-08-20T02:48:54.796Z,2.97
2017-08-20T02:51:22.534Z,3.50
2017-08-20T02:53:50.281Z,3.27
2017-08-20T02:56:18.082Z,2.50
2017-08-20T02:58:45.894Z,2.53
2017-08-20T03:01:13.751Z,2.60
2017-08-20T03:03:41.539Z,2.40
2017-08-20T03:06:09.281Z,2.40
2017-08-20T03:08:37.036Z,2.60
2017-08-20T03:11:04.789Z,2.93
2017-08-20T03:13:32.546Z,2.23
2017-08-20T03:16:00.337Z,2.77
2017-08-20T03:18:28.137Z,2.90
2017-08-20T03:20:56.412Z,3.03
2017-08-20T03:23:24.204Z,3.30
2017-08-20T03:25:51.986Z,2.70
2017-08-20T03:28:19.799Z,2.70
2017-08-20T03:30:47.531Z,2.33
2017-08-20T03:33:15.348Z,2.90
2017-08-20T03:35:43.245Z,2.73
2017-08-20T03:38:11.066Z,3.17
2017-08-20T03:40:38.804Z,2.70
2017-08-20T03:43:06.648Z,2.87
2017-08-20T03:45:34.400Z,3.00
2017-08-20T03:48:02.236Z,2.10
2017-08-20T03:50:30.036Z,3.30
2017-08-20T03:52:57.868Z,2.70
2017-08-20T03:55:25.662Z,2.93
2017-08-20T03:57:53.450Z,3.27
2017-08-20T04:00:21.180Z,2.10
2017-08-20T04:02:48.927Z,1.87
2017-08-20T04:05:16.742Z,2.57
2017-08-20T04:07:44.548Z,2.30
2017-08-20T04:10:12.375Z,2.40
2017-08-20T04:12:40.178Z,2.90
2017-08-20T04:15:07.926Z,2.60
2017-08-20T04:17:35.686Z,2.33
2017-08-20T04:20:03.422Z,2.37
2017-08-20T04:22:31.217Z,2.40
2017-08-20T04:24:59.024Z,2.40
2017-08-20T04:27:26.832Z,1.80
2017-08-20T04:29:54.611Z,2.30
2017-08-20T04:32:23.146Z,2.20
2017-08-20T04:34:50.928Z,2.63
2017-08-20T04:37:18.728Z,1.80
2017-08-20T04:39:46.493Z,2.53
2017-08-20T04:42:14.360Z,2.40
2017-08-20T04:44:43.007Z,1.90
2017-08-20T04:47:10.811Z,2.37
2017-08-20T04:49:40.343Z,2.50
2017-08-20T04:52:08.206Z,2.57
2017-08-20T04:54:36.781Z,2.73
2017-08-20T04:57:04.588Z,2.30
2017-08-20T04:59:32.352Z,2.10
2017-08-20T05:02:00.106Z,2.10
2017-08-20T05:04:27.939Z,2.63
2017-08-20T05:06:56.560Z,2.50
2017-08-20T05:09:24.341Z,2.03
2017-08-20T05:11:52.214Z,2.43
2017-08-20T05:14:19.989Z,1.83
2017-08-20T05:16:47.839Z,2.50
2017-08-20T05:19:15.659Z,2.30
2017-08-20T05:21:43.569Z,2.67
2017-08-20T05:24:12.404Z,2.40
2017-08-20T05:26:40.286Z,2.13
2017-08-20T05:29:08.187Z,1.90
2017-08-20T05:31:36.058Z,1.63
2017-08-20T05:34:03.891Z,1.73
2017-08-20T05:36:31.657Z,2.47
2017-08-20T05:38:59.435Z,2.97
2017-08-20T05:41:27.323Z,2.00
2017-08-20T05:43:55.173Z,2.60
2017-08-20T05:46:23.002Z,2.03
2017-08-20T05:48:50.745Z,1.70
2017-08-20T05:51:18.589Z,1.90
2017-08-20T05:53:48.954Z,1.73
2017-08-20T05:56:16.889Z,2.30
2017-08-20T05:58:45.453Z,1.73
2017-08-20T06:01:13.293Z,2.07
2017-08-20T06:03:41.039Z,1.77
2017-08-20T06:06:08.815Z,1.53
2017-08-20T06:08:36.652Z,1.87
2017-08-20T06:11:05.259Z,1.47
2017-08-20T06:13:33.094Z,1.60
2017-08-20T06:16:00.922Z,1.50
2017-08-20T06:18:28.763Z,1.70
2017-08-20T06:20:56.616Z,1.60
2017-08-20T06:23:24.387Z,1.70
2017-08-20T06:25:52.227Z,1.47
2017-08-20T06:28:20.063Z,1.63
2017-08-20T06:30:47.918Z,1.43
2017-08-20T06:33:15.748Z,1.60
2017-08-20T06:35:43.570Z,1.37
2017-08-20T06:38:11.415Z,1.23
2017-08-20T06:40:39.260Z,1.57
2017-08-20T06:43:07.007Z,1.87
2017-08-20T06:48:15.759Z,1.30
2017-08-20T06:50:43.683Z,1.33
2017-08-20T06:53:11.473Z,1.00
2017-08-20T06:55:39.296Z,1.13
2017-08-20T06:58:07.053Z,1.00
2017-08-20T07:00:35.589Z,1.00
2017-08-20T07:03:03.449Z,1.20
2017-08-20T07:05:31.215Z,0.70
2017-08-20T07:07:59.042Z,1.43
2017-08-20T07:10:26.974Z,0.97
2017-08-20T07:12:54.820Z,1.10
2017-08-20T07:15:22.698Z,1.00
2017-08-20T07:17:50.520Z,1.80
2017-08-20T07:20:28.859Z,1.20
2017-08-20T07:22:58.119Z,1.40
2017-08-20T07:25:27.215Z,1.03
2017-08-20T07:27:56.895Z,0.90
2017-08-20T07:30:24.753Z,1.00
2017-08-20T07:32:52.703Z,0.80
2017-08-20T07:35:20.490Z,0.90
2017-08-20T07:37:49.781Z,0.70
2017-08-20T07:40:17.572Z,0.77
2017-08-20T07:42:45.303Z,0.70
2017-08-20T07:45:13.210Z,1.20
2017-08-20T07:47:41.254Z,0.90
2017-08-20T07:50:09.042Z,0.90
2017-08-20T07:52:36.838Z,1.00
2017-08-20T07:55:04.577Z,0.87
2017-08-20T07:57:32.287Z,0.97
2017-08-20T08:00:00.087Z,2.33
2017-08-20T08:02:27.895Z,1.27
2017-08-20T08:04:55.671Z,2.60
2017-08-20T08:07:23.399Z,0.90
2017-08-20T08:09:51.198Z,1.30
2017-08-20T08:12:19.951Z,0.93
2017-08-20T08:14:47.695Z,0.70
2017-08-20T08:17:16.175Z,0.70
2017-08-20T08:19:43.902Z,1.60
2017-08-20T08:22:11.701Z,1.67
2017-08-20T08:24:39.537Z,1.20
2017-08-20T08:27:07.284Z,1.37
2017-08-20T08:29:35.225Z,0.77
2017-08-20T08:32:03.023Z,0.73
2017-08-20T08:34:30.818Z,0.87
2017-08-20T08:36:58.545Z,1.10
2017-08-20T08:39:26.259Z,1.07
2017-08-20T08:41:54.040Z,1.00
2017-08-20T08:44:23.303Z,1.00
2017-08-20T08:46:52.651Z,1.03
2017-08-20T08:49:21.271Z,1.10
2017-08-20T08:51:49.039Z,1.13
2017-08-20T08:54:16.813Z,1.37
2017-08-20T08:56:44.590Z,1.10
2017-08-20T08:59:12.369Z,0.97
2017-08-20T09:01:40.156Z,1.10
2017-08-20T09:04:07.948Z,1.20
2017-08-20T09:06:36.471Z,0.83
2017-08-20T09:09:04.240Z,0.90
2017-08-20T09:11:31.961Z,1.33
2017-08-20T09:13:59.697Z,1.00
2017-08-20T09:16:27.494Z,0.80
2017-08-20T09:18:55.215Z,0.77
2017-08-20T09:21:23.003Z,1.20
2017-08-20T09:23:50.732Z,1.60
2017-08-20T09:26:18.440Z,0.80
2017-08-20T09:28:46.220Z,1.00
2017-08-20T09:31:14.721Z,1.03
2017-08-20T09:33:42.457Z,1.50
2017-08-20T09:36:10.200Z,1.27
2017-08-20T09:38:38.902Z,0.80
2017-08-20T09:41:06.636Z,1.07
2017-08-20T09:43:34.518Z,1.00
2017-08-20T09:46:02.231Z,0.83
2017-08-20T09:48:29.962Z,1.00
2017-08-20T09:50:57.688Z,1.40
2017-08-20T09:53:25.429Z,1.20
2017-08-20T09:55:53.922Z,1.13
2017-08-20T09:58:21.674Z,0.90
2017-08-20T10:00:49.449Z,1.10
2017-08-20T10:03:17.212Z,1.33
2017-08-20T10:05:45.001Z,0.73
2017-08-20T10:08:13.045Z,1.10
2017-08-20T10:10:40.845Z,1.10
2017-08-20T10:13:08.631Z,1.20
2017-08-20T10:15:36.404Z,1.53
2017-08-20T10:18:04.170Z,0.90
2017-08-20T10:20:32.000Z,1.10
2017-08-20T10:22:59.834Z,1.00
2017-08-20T10:25:27.638Z,1.00
2017-08-20T10:27:55.464Z,1.40
2017-08-20T10:30:23.232Z,1.47
2017-08-20T10:32:52.068Z,0.90
2017-08-20T10:35:19.882Z,1.10
2017-08-20T10:37:48.200Z,0.83
2017-08-20T10:40:15.950Z,1.10
2017-08-20T10:42:44.722Z,0.90
2017-08-20T10:45:12.539Z,0.80
2017-08-20T10:47:40.359Z,0.70
2017-08-20T10:50:13.005Z,1.53
2017-08-20T10:52:43.342Z,1.20
2017-08-20T10:55:11.115Z,1.03
2017-08-20T10:57:38.880Z,0.90
2017-08-20T11:00:06.692Z,0.60
2017-08-20T11:02:34.525Z,1.00
2017-08-20T11:07:40.070Z,1.20
2017-08-20T11:10:07.927Z,1.10
2017-08-20T11:12:35.741Z,1.10
2017-08-20T11:15:03.493Z,0.90
2017-08-20T11:17:32.223Z,0.73
2017-08-20T11:19:59.972Z,0.77
2017-08-20T11:22:27.802Z,1.00
2017-08-20T11:24:58.352Z,0.90
2017-08-20T11:27:27.164Z,1.20
2017-08-20T11:29:55.109Z,1.00
2017-08-20T11:32:22.927Z,0.80
2017-08-20T11:34:52.504Z,0.90
2017-08-20T11:37:32.831Z,1.30
2017-08-20T11:40:01.403Z,1.00
2017-08-20T11:42:29.365Z,1.20
2017-08-20T11:45:00.590Z,1.20
2017-08-20T11:47:28.623Z,0.80
2017-08-20T11:49:57.870Z,1.10
2017-08-20T11:52:25.775Z,1.20
2017-08-20T11:54:53.543Z,0.90
2017-08-20T11:57:21.298Z,0.90
2017-08-20T11:59:49.087Z,1.30
2017-08-20T12:02:22.755Z,1.00
2017-08-20T12:04:50.493Z,1.60
2017-08-20T12:07:18.307Z,1.20
2017-08-20T12:09:46.059Z,1.30
2017-08-20T12:12:13.849Z,1.40
2017-08-20T12:14:41.591Z,1.40
2017-08-20T12:17:09.356Z,1.33
2017-08-20T12:19:37.168Z,1.60
2017-08-20T12:22:04.949Z,1.20
2017-08-20T12:24:32.741Z,1.43
2017-08-20T12:27:01.913Z,1.33
2017-08-20T12:29:30.571Z,1.13
2017-08-20T12:31:58.292Z,1.57
2017-08-20T12:34:26.078Z,3.47
2017-08-20T12:36:53.808Z,1.30
2017-08-20T12:39:21.584Z,1.27
2017-08-20T12:41:49.295Z,1.80
2017-08-20T12:44:17.027Z,1.10
2017-08-20T12:46:44.757Z,1.00
2017-08-20T12:49:12.538Z,1.20
2017-08-20T12:51:40.272Z,1.10
2017-08-20T12:54:08.283Z,0.90
2017-08-20T12:56:36.027Z,1.03
2017-08-20T12:59:03.809Z,1.03
2017-08-20T13:01:31.556Z,1.10
2017-08-20T13:03:59.294Z,1.50
2017-08-20T13:06:27.866Z,1.90
2017-08-20T13:08:55.642Z,1.13
2017-08-20T13:11:23.361Z,0.90
2017-08-20T13:13:51.098Z,1.23
2017-08-20T13:16:18.890Z,1.23
2017-08-20T13:18:46.680Z,0.90
2017-08-20T13:21:14.494Z,1.10
2017-08-20T13:23:42.231Z,0.90
2017-08-20T13:26:09.974Z,1.13
2017-08-20T13:28:37.765Z,1.20
2017-08-20T13:31:05.500Z,1.00
2017-08-20T13:33:33.277Z,1.00
2017-08-20T13:36:01.080Z,0.93
2017-08-20T13:38:28.793Z,1.00
2017-08-20T13:40:56.523Z,1.40
2017-08-20T13:43:24.318Z,1.13
2017-08-20T13:45:52.093Z,1.53
2017-08-20T13:48:19.882Z,1.00
2017-08-20T13:50:47.616Z,1.20
2017-08-20T13:53:15.431Z,0.97
2017-08-20T13:55:43.178Z,2.00
2017-08-20T13:58:10.920Z,2.23
2017-08-20T14:00:38.708Z,2.67
2017-08-20T14:03:06.433Z,1.33
2017-08-20T14:05:34.449Z,1.67
2017-08-20T14:08:02.280Z,1.13
2017-08-20T14:10:30.033Z,1.27
2017-08-20T14:12:57.795Z,1.10
2017-08-20T14:15:25.521Z,0.90
2017-08-20T14:17:53.296Z,1.07
2017-08-20T14:20:21.072Z,1.00
2017-08-20T14:22:48.836Z,1.30
2017-08-20T14:25:16.626Z,0.97
2017-08-20T14:27:44.412Z,1.53
2017-08-20T14:30:12.168Z,1.53
2017-08-20T14:32:39.956Z,1.27
2017-08-20T14:35:07.672Z,1.37
2017-08-20T14:37:35.449Z,0.83
2017-08-20T14:40:03.165Z,1.10
2017-08-20T14:42:32.353Z,1.10
2017-08-20T14:45:00.136Z,1.00
2017-08-20T14:47:27.928Z,1.70
2017-08-20T14:49:55.683Z,1.57
2017-08-20T14:52:23.406Z,1.30
2017-08-20T14:54:51.211Z,1.27
2017-08-20T14:57:18.967Z,1.60
2017-08-20T14:59:46.679Z,1.47
2017-08-20T15:02:14.461Z,1.27
2017-08-20T15:04:42.256Z,1.27
2017-08-20T15:07:10.047Z,1.40
2017-08-20T15:09:37.909Z,1.07
2017-08-20T15:12:05.721Z,1.40
2017-08-20T15:14:33.432Z,1.30
2017-08-20T15:17:01.149Z,1.60
2017-08-20T15:19:29.698Z,1.30
2017-08-20T15:21:57.446Z,1.70
2017-08-20T15:24:25.225Z,1.00
2017-08-20T15:26:53.013Z,1.43
2017-08-20T15:29:20.800Z,1.30
2017-08-20T15:31:48.533Z,1.40
2017-08-20T15:34:16.274Z,1.20
2017-08-20T15:36:44.078Z,1.00
2017-08-20T15:39:11.799Z,1.20
2017-08-20T15:41:39.616Z,1.10
2017-08-20T15:44:07.397Z,1.10
2017-08-20T15:46:35.184Z,1.13
2017-08-20T15:49:02.965Z,1.60
2017-08-20T15:51:31.797Z,1.03
2017-08-20T15:53:59.597Z,1.10
2017-08-20T15:56:27.391Z,1.10
2017-08-20T15:58:55.265Z,1.20
2017-08-20T16:01:23.121Z,1.13
2017-08-20T16:03:54.568Z,1.10
2017-08-20T16:06:22.391Z,1.07
2017-08-20T16:08:50.131Z,1.03
2017-08-20T16:11:17.924Z,1.20
2017-08-20T16:13:45.689Z,1.30
2017-08-20T16:16:13.494Z,1.03
2017-08-20T16:18:41.233Z,1.50
2017-08-20T16:21:08.989Z,2.63
2017-08-20T16:23:36.782Z,1.23
2017-08-20T16:26:04.500Z,1.43
2017-08-20T16:28:32.315Z,1.40
2017-08-20T16:31:00.116Z,1.30
2017-08-20T16:33:27.858Z,1.10
2017-08-20T16:35:55.599Z,1.10
2017-08-20T16:38:23.389Z,1.40
2017-08-20T16:40:51.111Z,1.20
2017-08-20T16:43:18.916Z,1.00
2017-08-20T16:45:46.668Z,1.40
2017-08-20T16:48:14.421Z,1.10
2017-08-20T16:50:42.175Z,1.37
2017-08-20T16:53:10.346Z,1.33
2017-08-20T16:55:38.382Z,1.60
2017-08-20T16:58:06.124Z,1.33
2017-08-20T17:00:33.857Z,1.90
2017-08-20T17:03:01.633Z,1.63
2017-08-20T17:05:29.391Z,1.23
2017-08-20T17:07:57.219Z,1.40
2017-08-20T17:10:24.995Z,1.20
2017-08-20T17:12:52.839Z,1.93
2017-08-20T17:15:31.138Z,1.60
2017-08-20T17:17:58.972Z,1.50
2017-08-20T17:20:26.720Z,1.67
2017-08-20T17:22:54.507Z,1.50
2017-08-20T17:25:22.350Z,1.40
2017-08-20T17:27:50.171Z,1.00
2017-08-20T17:30:17.949Z,0.90
2017-08-20T17:32:45.860Z,1.43
2017-08-20T17:35:13.912Z,1.37
2017-08-20T17:37:42.509Z,1.20
2017-08-20T17:40:10.250Z,2.30
2017-08-20T17:42:38.068Z,1.57
2017-08-20T17:45:05.857Z,2.10
2017-08-20T17:47:35.737Z,1.20
2017-08-20T17:50:03.997Z,1.10
2017-08-20T17:52:31.833Z,1.50
2017-08-20T17:54:59.787Z,1.40
2017-08-20T17:57:27.534Z,1.53
2017-08-20T17:59:55.587Z,1.10
2017-08-20T18:03:41.864Z,1.40
2017-08-20T18:06:09.604Z,1.77
2017-08-20T18:08:37.403Z,1.67
2017-08-20T18:11:05.973Z,1.60
2017-08-20T18:13:33.812Z,1.50
2017-08-20T18:16:01.749Z,1.83
2017-08-20T18:18:30.339Z,1.67
2017-08-20T18:20:58.152Z,2.83
2017-08-20T18:23:26.033Z,1.70
2017-08-20T18:25:53.796Z,1.37
2017-08-20T18:28:21.578Z,1.80
2017-08-20T18:30:49.787Z,1.43
2017-08-20T18:33:17.983Z,1.57
2017-08-20T18:35:45.818Z,1.70
2017-08-20T18:38:13.612Z,4.00
2017-08-20T18:40:41.365Z,2.50
2017-08-20T18:43:09.162Z,1.50
2017-08-20T18:45:36.905Z,1.47
2017-08-20T18:48:04.636Z,1.70
2017-08-20T18:50:32.376Z,1.60
2017-08-20T18:53:00.239Z,1.90
2017-08-20T18:55:28.118Z,2.50
2017-08-20T18:57:56.549Z,1.77
2017-08-20T19:00:25.437Z,2.80
2017-08-20T19:02:54.073Z,2.30
2017-08-20T19:05:23.526Z,2.50
2017-08-20T19:07:51.695Z,1.43
2017-08-20T19:10:20.637Z,1.27
2017-08-20T19:12:48.964Z,1.40
2017-08-20T19:15:19.055Z,1.40
2017-08-20T19:17:49.356Z,1.53
2017-08-20T19:20:18.109Z,1.60
2017-08-20T19:22:46.620Z,1.83
2017-08-20T19:25:15.591Z,1.60
2017-08-20T19:27:43.985Z,1.90
2017-08-20T19:30:13.157Z,3.30
2017-08-20T19:32:41.182Z,1.90
2017-08-20T19:35:09.646Z,1.50
2017-08-20T19:37:38.552Z,1.80
2017-08-20T19:40:06.889Z,1.67
2017-08-20T19:42:34.897Z,1.20
2017-08-20T19:45:03.689Z,1.77
2017-08-20T19:47:33.442Z,1.47
2017-08-20T19:50:02.116Z,2.63
2017-08-20T19:52:29.854Z,3.20
2017-08-20T19:54:57.667Z,2.60
2017-08-20T19:57:25.406Z,2.00
2017-08-20T19:59:53.183Z,2.00
2017-08-20T20:02:20.939Z,1.90
2017-08-20T20:04:48.673Z,2.10
2017-08-20T20:07:16.402Z,2.03
2017-08-20T20:09:44.190Z,1.60
2017-08-20T20:12:11.922Z,4.27
2017-08-20T20:14:39.657Z,1.80
2017-08-20T20:17:08.191Z,1.73
2017-08-20T20:19:35.997Z,1.77
2017-08-20T20:22:03.799Z,2.27
2017-08-20T20:24:31.593Z,1.60
2017-08-20T20:26:59.377Z,1.77
2017-08-20T20:29:27.133Z,1.67
2017-08-20T20:31:54.876Z,2.30
2017-08-20T20:34:22.673Z,1.60
2017-08-20T20:36:50.414Z,2.40
2017-08-20T20:39:18.144Z,1.80
2017-08-20T20:41:45.868Z,1.60
2017-08-20T20:44:13.597Z,1.90
2017-08-20T20:46:41.367Z,2.03
2017-08-20T20:49:09.149Z,2.00
2017-08-20T20:51:37.009Z,2.33
2017-08-20T20:54:04.814Z,2.57
2017-08-20T20:56:32.615Z,2.30
2017-08-20T20:59:01.219Z,1.90
2017-08-20T21:01:29.014Z,1.77
2017-08-20T21:03:56.792Z,1.80
2017-08-20T21:06:24.538Z,2.07
2017-08-20T21:08:52.336Z,1.90
2017-08-20T21:11:20.158Z,2.03
2017-08-20T21:13:47.940Z,2.90
2017-08-20T21:16:15.663Z,1.97
2017-08-20T21:18:43.464Z,2.30
2017-08-20T21:21:11.245Z,2.87
2017-08-20T21:23:39.024Z,3.17
2017-08-20T21:26:06.819Z,2.50
2017-08-20T21:28:34.626Z,3.00
2017-08-20T21:31:02.419Z,6.30
2017-08-20T21:33:30.164Z,3.23
2017-08-20T21:35:57.934Z,2.40
2017-08-20T21:38:25.682Z,2.60
2017-08-20T21:40:53.409Z,2.70
2017-08-20T21:43:21.154Z,2.50
2017-08-20T21:45:48.877Z,2.30
2017-08-20T21:48:16.605Z,2.07
2017-08-20T21:50:44.352Z,1.90
2017-08-20T21:53:12.089Z,2.40
2017-08-20T21:55:39.865Z,2.13
2017-08-20T21:58:07.601Z,2.13
2017-08-20T22:00:35.354Z,2.17
2017-08-20T22:03:03.183Z,1.60
2017-08-20T22:05:30.980Z,1.93
2017-08-20T22:07:58.697Z,1.60
2017-08-20T22:10:26.476Z,2.03
2017-08-20T22:12:54.288Z,2.10
2017-08-20T22:15:22.014Z,1.70
2017-08-20T22:17:49.781Z,2.10
2017-08-20T22:20:17.526Z,2.10
2017-08-20T22:22:45.312Z,2.03
2017-08-20T22:25:13.090Z,2.10
2017-08-20T22:27:40.828Z,2.00
2017-08-20T22:30:10.360Z,2.53
2017-08-20T22:32:39.630Z,1.80
2017-08-20T22:35:08.213Z,2.30
2017-08-20T22:37:36.750Z,2.03
2017-08-20T22:40:04.508Z,1.93
2017-08-20T22:42:32.261Z,1.83
2017-08-20T22:45:00.350Z,1.50
2017-08-20T22:47:28.149Z,1.97
2017-08-20T22:49:56.561Z,1.57
2017-08-20T22:52:24.370Z,1.83
2017-08-20T22:54:52.111Z,2.20
2017-08-20T22:57:19.878Z,2.37
2017-08-20T22:59:47.691Z,1.70
2017-08-20T23:02:15.412Z,1.83
2017-08-20T23:04:43.141Z,1.67
2017-08-20T23:07:10.966Z,1.90
2017-08-20T23:09:38.689Z,2.17
2017-08-20T23:12:06.402Z,1.80
2017-08-20T23:14:34.193Z,2.10
2017-08-20T23:17:02.971Z,1.77
2017-08-20T23:19:30.687Z,1.53
2017-08-20T23:21:58.473Z,1.50
2017-08-20T23:24:26.213Z,1.67
2017-08-20T23:26:53.937Z,1.60
2017-08-20T23:29:21.751Z,1.10
2017-08-20T23:31:49.490Z,1.40
2017-08-20T23:34:17.266Z,1.73
2017-08-20T23:36:45.050Z,1.50
2017-08-20T23:39:12.780Z,1.50
2017-08-20T23:41:40.570Z,1.57
2017-08-20T23:44:08.305Z,1.30
2017-08-20T23:46:36.024Z,2.20
2017-08-20T23:49:03.750Z,1.60
2017-08-20T23:51:31.499Z,1.30
2017-08-20T23:53:59.212Z,1.43
2017-08-20T23:56:27.008Z,1.10
2017-08-20T23:58:54.812Z,1.33
